KCYS

Cheyenne Regional / Jerry Olson Field Airport

Cheyenne, Wyoming, USA
METAR KCYS 220953Z AUTO 29006KT 10SM CLR 09/07 A3003 RMK AO2 SLP108 T00890072
Observed Flight Rules
May-22 @ 09:53 UTC (26 minutes ago) Visual Flight Rules
Wind Visibility Clouds
290° at 6 knots 10 miles
  • Clear skies
Temperatures Readings
Current 9°C / 48°F
Dewpoint 7°C / 45°F
Humidity 87%
Altimeter 30.03" Hg
Pressure 1010.8 hPa
Elevation 1868
METAR KCYS 220953Z AUTO 29006KT 10SM CLR 09/07 A3003 RMK AO2 SLP108 T00890072
Observed Flight Rules
May-22 @ 09:53 UTC
(26 minutes ago)
VFR
Wind Visibility
290° at 6 knots 10 miles
Clouds
  • Clear skies
Temperature Dewpoint
9°C / 48°F 7°C / 45°F
Humidity Altimeter Pressure
87% 30.03" Hg 1010.8 hPa